Archival Weather

Los Angeles Intl

Los Angeles, California (KLAX)

Report from: Thursday, September 21, 2023 11:53 PM PDT
Current time: Saturday, March 2, 2024 2:17 AM PST

Current weather – Weather history – Daily summaries
Weather forecast

Temperature17.2°C (63.0°F)
Dew point13.9°C (57.0°F)
Winds 4 kts (2.1 m/s, 4.6 mph) West-Southwest (250°)
Visibility10 mi. (16.1 km)
Clouds Few clouds 15,000 ft. (4,572 m)
Altimeter29.96 in.Hg (1015 mB)
Relative humidity81 %
Density altitude451 ft. (137 m)
Sea-level pressure101.4 kPa (1014 mB, 29.95 in.Hg)
Remarks Automated weather observing station with precipitation discriminator
Flight conditions Visual Meteorological Conditions
Raw dataKLAX 220653Z 25004KT 10SM FEW150 17/14 A2996 RMK AO2 SLP141 T01720139
An error has occurred. This application may no longer respond until reloaded. Reload 🗙